Terminal Aerodrome Forecast
Issued by NWS

Home | Current Version | Previous Version | Text Only | Print | Product List | Glossary On
Versions: 1 2 3 4 5 6 7 8 9 10 11 12 13 14
027
FTUS43 KOAX 101720
TAFCDR
TAF
KCDR 101720Z 1018/1118 29013KT P6SM SKC
     FM110000 26007KT P6SM SKC
     FM111500 28010G20KT P6SM BKN150=

USA.gov is the U.S. government's official web portal to all federal, state and local government web resources and services.